createdAt,value
2017-08-24T00:00:31.168Z,76.68
2017-08-24T00:02:59.533Z,76.13
2017-08-24T00:05:27.965Z,76.02
2017-08-24T00:07:56.334Z,76.28
2017-08-24T00:10:24.696Z,75.63
2017-08-24T00:12:53.062Z,75.42
2017-08-24T00:15:21.424Z,76.22
2017-08-24T00:17:49.822Z,76.92
2017-08-24T00:20:18.201Z,77.13
2017-08-24T00:22:46.559Z,77.52
2017-08-24T00:25:14.921Z,76.71
2017-08-24T00:27:43.291Z,77.42
2017-08-24T00:30:11.650Z,77.96
2017-08-24T00:32:40.012Z,77.10
2017-08-24T00:35:08.364Z,76.79
2017-08-24T00:37:36.719Z,77.44
2017-08-24T00:40:05.413Z,77.17
2017-08-24T00:42:33.782Z,77.33
2017-08-24T00:45:02.136Z,77.50
2017-08-24T00:47:30.495Z,78.20
2017-08-24T00:49:58.855Z,77.59
2017-08-24T00:52:27.220Z,77.10
2017-08-24T00:54:55.586Z,77.69
2017-08-24T00:57:23.980Z,77.58
2017-08-24T00:59:52.331Z,77.62
2017-08-24T01:02:20.705Z,78.22
2017-08-24T01:04:48.618Z,78.22
2017-08-24T01:07:16.536Z,77.25
2017-08-24T01:09:44.440Z,77.74
2017-08-24T01:12:12.372Z,78.63
2017-08-24T01:14:40.280Z,78.74
2017-08-24T01:17:08.196Z,78.98
2017-08-24T01:19:36.107Z,79.75
2017-08-24T01:22:04.042Z,79.14
2017-08-24T01:24:31.951Z,79.54
2017-08-24T01:26:59.853Z,79.83
2017-08-24T01:29:27.776Z,79.83
2017-08-24T01:31:55.973Z,79.83
2017-08-24T01:34:24.148Z,80.37
2017-08-24T01:36:52.062Z,81.51
2017-08-24T01:39:19.982Z,81.62
2017-08-24T01:41:47.888Z,81.80
2017-08-24T01:44:15.795Z,82.03
2017-08-24T01:46:43.694Z,81.87
2017-08-24T01:49:11.611Z,81.42
2017-08-24T01:51:39.831Z,80.60
2017-08-24T01:54:07.752Z,80.78
2017-08-24T01:56:35.670Z,81.47
2017-08-24T01:59:03.912Z,81.92
2017-08-24T02:01:31.825Z,81.53
2017-08-24T02:03:59.727Z,81.48
2017-08-24T02:06:27.646Z,81.30
2017-08-24T02:08:55.555Z,82.52
2017-08-24T02:11:23.463Z,82.41
2017-08-24T02:13:51.373Z,82.82
2017-08-24T02:16:19.280Z,82.55
2017-08-24T02:18:47.509Z,83.23
2017-08-24T02:21:15.425Z,82.61
2017-08-24T02:23:43.337Z,82.59
2017-08-24T02:26:11.371Z,82.72
2017-08-24T02:28:39.270Z,82.87
2017-08-24T02:31:07.172Z,82.82
2017-08-24T02:33:35.098Z,82.71
2017-08-24T02:36:03.012Z,82.72
2017-08-24T02:38:30.933Z,83.22
2017-08-24T02:40:58.846Z,82.87
2017-08-24T02:43:26.769Z,83.14
2017-08-24T02:45:54.679Z,83.13
2017-08-24T02:48:22.592Z,83.01
2017-08-24T02:50:50.494Z,82.89
2017-08-24T02:53:18.804Z,82.23
2017-08-24T02:55:46.725Z,82.01
2017-08-24T02:58:14.649Z,81.26
2017-08-24T03:00:42.548Z,82.51
2017-08-24T03:03:10.801Z,83.36
2017-08-24T03:05:38.757Z,83.16
2017-08-24T03:08:06.663Z,82.44
2017-08-24T03:10:34.589Z,82.30
2017-08-24T03:13:02.497Z,82.98
2017-08-24T03:15:30.411Z,83.55
2017-08-24T03:17:58.321Z,83.67
2017-08-24T03:20:26.315Z,83.12
2017-08-24T03:22:54.228Z,83.75
2017-08-24T03:25:22.143Z,83.60
2017-08-24T03:27:50.045Z,83.23
2017-08-24T03:30:18.179Z,83.38
2017-08-24T03:32:46.089Z,82.88
2017-08-24T03:35:13.996Z,83.04
2017-08-24T03:37:41.906Z,83.74
2017-08-24T03:40:09.816Z,84.42
2017-08-24T03:42:37.732Z,84.36
2017-08-24T03:45:05.641Z,84.89
2017-08-24T03:47:33.547Z,85.14
2017-08-24T03:50:01.453Z,85.79
2017-08-24T03:52:29.373Z,85.88
2017-08-24T03:54:57.281Z,85.49
2017-08-24T03:57:25.200Z,85.79
2017-08-24T03:59:53.099Z,85.95
2017-08-24T04:02:21.020Z,85.95
2017-08-24T04:04:48.938Z,85.81
2017-08-24T04:07:16.860Z,85.71
2017-08-24T04:09:44.768Z,85.91
2017-08-24T04:12:12.868Z,86.03
2017-08-24T04:14:40.768Z,85.86
2017-08-24T04:17:08.673Z,85.37
2017-08-24T04:19:36.920Z,85.42
2017-08-24T04:22:04.824Z,85.02
2017-08-24T04:24:32.740Z,84.54
2017-08-24T04:27:00.653Z,83.97
2017-08-24T04:29:28.573Z,83.88
2017-08-24T04:31:56.489Z,83.24
2017-08-24T04:34:24.865Z,82.91
2017-08-24T04:36:52.763Z,83.07
2017-08-24T04:39:20.670Z,82.16
2017-08-24T04:41:48.585Z,80.82
2017-08-24T04:44:16.510Z,79.70
2017-08-24T04:46:44.449Z,78.81
2017-08-24T04:49:12.760Z,78.67
2017-08-24T04:51:40.710Z,76.90
2017-08-24T04:54:08.657Z,74.78
2017-08-24T04:56:36.571Z,73.26
2017-08-24T04:59:04.496Z,71.09
2017-08-24T05:01:32.417Z,68.37
2017-08-24T05:04:00.342Z,65.50
2017-08-24T05:06:28.260Z,63.93
2017-08-24T05:08:56.173Z,62.16
2017-08-24T05:11:24.236Z,61.47
2017-08-24T05:13:52.170Z,61.35
2017-08-24T05:16:20.077Z,61.13
2017-08-24T05:18:47.993Z,62.09
2017-08-24T05:21:16.162Z,62.12
2017-08-24T05:23:44.086Z,61.41
2017-08-24T05:26:11.987Z,59.27
2017-08-24T05:28:39.905Z,61.57
2017-08-24T05:31:07.807Z,59.58
2017-08-24T05:33:35.810Z,57.31
2017-08-24T05:36:03.711Z,56.15
2017-08-24T05:38:31.629Z,55.75
2017-08-24T05:40:59.559Z,52.13
2017-08-24T05:43:27.459Z,52.01
2017-08-24T05:45:55.384Z,52.37
2017-08-24T05:48:23.292Z,51.33
2017-08-24T05:50:51.203Z,51.85
2017-08-24T05:53:19.103Z,50.52
2017-08-24T05:55:47.201Z,50.63
2017-08-24T05:58:15.160Z,51.01
2017-08-24T06:00:43.067Z,50.99
2017-08-24T06:03:10.990Z,50.99
2017-08-24T06:05:38.904Z,50.53
2017-08-24T06:08:06.820Z,50.05
2017-08-24T06:10:34.719Z,50.00
2017-08-24T06:13:02.629Z,50.39
2017-08-24T06:15:30.531Z,48.81
2017-08-24T06:17:58.456Z,47.63
2017-08-24T06:20:26.364Z,46.12
2017-08-24T06:22:54.270Z,44.83
2017-08-24T06:25:22.184Z,43.79
2017-08-24T06:27:50.112Z,44.71
2017-08-24T06:30:18.021Z,45.27
2017-08-24T06:32:46.130Z,46.62
2017-08-24T06:35:14.040Z,47.85
2017-08-24T06:37:41.943Z,48.10
2017-08-24T06:40:09.855Z,49.00
2017-08-24T06:42:37.755Z,50.42
2017-08-24T06:45:05.679Z,51.10
2017-08-24T06:47:33.583Z,51.03
2017-08-24T06:50:01.491Z,50.39
2017-08-24T06:52:29.400Z,49.67
2017-08-24T06:54:57.324Z,49.82
2017-08-24T06:57:25.214Z,49.70
2017-08-24T06:59:53.126Z,49.24
2017-08-24T07:02:21.035Z,50.00
2017-08-24T07:04:48.965Z,49.74
2017-08-24T07:07:16.867Z,49.58
2017-08-24T07:09:44.794Z,50.08
2017-08-24T07:12:12.971Z,49.85
2017-08-24T07:14:40.999Z,50.15
2017-08-24T07:17:08.921Z,49.67
2017-08-24T07:19:36.840Z,46.70
2017-08-24T07:22:04.761Z,43.52
2017-08-24T07:24:32.659Z,40.30
2017-08-24T07:27:00.574Z,37.61
2017-08-24T07:29:28.519Z,35.37
2017-08-24T07:31:56.641Z,33.92
2017-08-24T07:34:24.552Z,33.21
2017-08-24T07:36:52.473Z,33.02
2017-08-24T07:39:20.381Z,33.03
2017-08-24T07:41:48.399Z,31.84
2017-08-24T07:44:16.312Z,31.35
2017-08-24T07:46:44.215Z,30.75
2017-08-24T07:49:12.127Z,30.47
2017-08-24T07:51:40.040Z,30.21
2017-08-24T07:54:07.956Z,29.45
2017-08-24T07:56:35.885Z,30.15
2017-08-24T07:59:03.813Z,30.49
2017-08-24T08:01:31.719Z,30.38
2017-08-24T08:03:59.650Z,30.96
2017-08-24T08:06:27.579Z,30.78
2017-08-24T08:08:55.795Z,32.84
2017-08-24T08:11:23.690Z,32.73
2017-08-24T08:13:51.592Z,33.23
2017-08-24T08:16:19.499Z,32.87
2017-08-24T08:18:47.453Z,31.69
2017-08-24T08:21:15.402Z,30.00
2017-08-24T08:23:43.446Z,29.30
2017-08-24T08:26:11.358Z,29.69
2017-08-24T08:28:39.254Z,30.15
2017-08-24T08:31:07.175Z,30.68
2017-08-24T08:33:35.083Z,32.28
2017-08-24T08:36:03.200Z,32.13
2017-08-24T08:38:31.105Z,32.23
2017-08-24T08:40:59.012Z,32.60
2017-08-24T08:43:26.927Z,32.76
2017-08-24T08:45:54.869Z,33.25
2017-08-24T08:48:22.796Z,33.24
2017-08-24T08:50:50.689Z,33.92
2017-08-24T08:53:18.608Z,33.93
2017-08-24T08:55:46.510Z,33.71
2017-08-24T08:58:14.418Z,32.69
2017-08-24T09:00:42.328Z,32.12
2017-08-24T09:03:10.454Z,31.90
2017-08-24T09:05:38.347Z,31.39
2017-08-24T09:08:06.265Z,31.34
2017-08-24T09:10:34.188Z,32.25
2017-08-24T09:13:02.096Z,32.20
2017-08-24T09:15:30.102Z,32.63
2017-08-24T09:17:58.012Z,33.07
2017-08-24T09:20:25.928Z,33.70
2017-08-24T09:22:53.836Z,33.64
2017-08-24T09:25:21.756Z,33.70
2017-08-24T09:27:49.655Z,34.23
2017-08-24T09:30:17.558Z,35.07
2017-08-24T09:32:45.469Z,35.88
2017-08-24T09:35:13.568Z,36.38
2017-08-24T09:37:41.480Z,36.77
2017-08-24T09:40:09.486Z,37.38
2017-08-24T09:42:37.409Z,38.64
2017-08-24T09:45:05.306Z,38.50
2017-08-24T09:47:33.220Z,38.23
2017-08-24T09:50:01.124Z,38.03
2017-08-24T09:52:29.036Z,39.24
2017-08-24T09:54:57.256Z,39.35
2017-08-24T09:57:25.378Z,43.81
2017-08-24T09:59:53.297Z,61.34
2017-08-24T10:02:21.189Z,71.10
2017-08-24T10:04:49.123Z,78.83
2017-08-24T10:07:17.069Z,81.27
2017-08-24T10:09:44.992Z,82.05
2017-08-24T10:12:13.483Z,82.02
2017-08-24T10:14:41.408Z,80.08
2017-08-24T10:17:09.310Z,78.08
2017-08-24T10:19:37.463Z,78.34
2017-08-24T10:22:05.641Z,78.23
2017-08-24T10:24:33.610Z,76.11
2017-08-24T10:27:01.520Z,77.61
2017-08-24T10:29:29.513Z,78.21
2017-08-24T10:31:57.368Z,78.74
2017-08-24T10:34:25.272Z,81.23
2017-08-24T10:36:53.193Z,80.88
2017-08-24T10:39:21.184Z,79.61
2017-08-24T10:41:49.098Z,77.23
2017-08-24T10:44:16.998Z,75.07
2017-08-24T10:46:44.902Z,73.30
2017-08-24T10:49:12.797Z,71.16
2017-08-24T10:51:40.712Z,70.65
2017-08-24T10:54:08.608Z,67.42
2017-08-24T10:56:36.524Z,68.27
2017-08-24T10:59:04.428Z,68.29
2017-08-24T11:01:32.338Z,64.72
2017-08-24T11:04:00.252Z,61.51
2017-08-24T11:06:28.181Z,57.93
2017-08-24T11:08:56.093Z,55.40
2017-08-24T11:11:23.991Z,54.31
2017-08-24T11:13:54.168Z,56.09
2017-08-24T11:16:22.084Z,53.88
2017-08-24T11:18:49.997Z,52.55
2017-08-24T11:21:17.902Z,51.43
2017-08-24T11:23:45.826Z,47.92
2017-08-24T11:26:13.732Z,50.48
2017-08-24T11:28:41.642Z,49.64
2017-08-24T11:31:09.553Z,48.33
2017-08-24T11:33:37.468Z,50.13
2017-08-24T11:36:05.385Z,46.16
2017-08-24T11:38:33.537Z,44.46
2017-08-24T11:41:01.448Z,46.55
2017-08-24T11:43:29.353Z,46.20
2017-08-24T11:45:57.259Z,46.19
2017-08-24T11:48:25.169Z,45.99
2017-08-24T11:50:53.075Z,49.08
2017-08-24T11:53:20.978Z,45.61
2017-08-24T11:55:48.893Z,45.36
2017-08-24T11:58:16.802Z,45.88
2017-08-24T12:00:44.720Z,44.08
2017-08-24T12:03:12.628Z,43.85
2017-08-24T12:05:40.560Z,44.55
2017-08-24T12:08:08.483Z,44.33
2017-08-24T12:10:36.592Z,45.15
2017-08-24T12:13:04.486Z,46.30
2017-08-24T12:15:32.392Z,48.91
2017-08-24T12:18:00.302Z,48.79
2017-08-24T12:20:28.202Z,50.12
2017-08-24T12:22:56.121Z,51.17
2017-08-24T12:25:24.032Z,51.05
2017-08-24T12:27:51.965Z,51.88
2017-08-24T12:30:19.865Z,51.68
2017-08-24T12:32:47.780Z,51.60
2017-08-24T12:35:15.691Z,50.54
2017-08-24T12:37:43.769Z,49.91
2017-08-24T12:40:11.716Z,51.00
2017-08-24T12:42:39.624Z,50.12
2017-08-24T12:45:07.526Z,51.14
2017-08-24T12:47:35.433Z,49.84
2017-08-24T12:50:03.356Z,51.59
2017-08-24T12:52:31.263Z,50.47
2017-08-24T12:54:59.236Z,50.32
2017-08-24T12:57:27.176Z,51.07
2017-08-24T12:59:55.082Z,49.70
2017-08-24T13:02:22.979Z,49.90
2017-08-24T13:04:50.891Z,48.85
2017-08-24T13:07:18.795Z,47.96
2017-08-24T13:09:46.708Z,48.19
2017-08-24T13:12:14.620Z,48.75
2017-08-24T13:14:42.544Z,48.58
2017-08-24T13:17:10.459Z,48.97
2017-08-24T13:19:38.363Z,49.28
2017-08-24T13:22:06.280Z,49.83
2017-08-24T13:24:34.195Z,51.09
2017-08-24T13:27:02.108Z,51.02
2017-08-24T13:29:30.011Z,51.24
2017-08-24T13:31:57.936Z,50.79
2017-08-24T13:34:25.834Z,50.68
2017-08-24T13:36:53.781Z,50.63
2017-08-24T13:39:21.687Z,51.23
2017-08-24T13:41:49.731Z,50.52
2017-08-24T13:44:17.642Z,50.53
2017-08-24T13:46:45.543Z,51.96
2017-08-24T13:49:13.460Z,52.54
2017-08-24T13:51:41.655Z,52.94
2017-08-24T13:54:09.835Z,54.20
2017-08-24T13:56:37.753Z,55.77
2017-08-24T13:59:05.976Z,56.95
2017-08-24T14:01:33.879Z,58.43
2017-08-24T14:04:01.790Z,59.21
2017-08-24T14:06:29.711Z,59.11
2017-08-24T14:08:57.711Z,58.55
2017-08-24T14:11:25.636Z,58.45
2017-08-24T14:13:53.542Z,58.82
2017-08-24T14:16:21.767Z,58.54
2017-08-24T14:18:49.676Z,59.24
2017-08-24T14:21:17.577Z,59.88
2017-08-24T14:23:45.487Z,60.22
2017-08-24T14:26:13.400Z,60.68
2017-08-24T14:28:41.291Z,59.69
2017-08-24T14:31:09.348Z,59.82
2017-08-24T14:33:37.243Z,59.12
2017-08-24T14:36:05.151Z,57.97
2017-08-24T14:38:33.063Z,57.20
2017-08-24T14:41:00.972Z,56.86
2017-08-24T14:43:28.879Z,56.36
2017-08-24T14:45:56.782Z,57.36
2017-08-24T14:48:24.691Z,56.75
2017-08-24T14:50:52.582Z,56.40
2017-08-24T14:53:20.485Z,56.19
2017-08-24T14:55:48.474Z,56.43
2017-08-24T14:58:16.595Z,57.38
2017-08-24T15:00:44.814Z,58.19
2017-08-24T15:03:12.714Z,59.00
2017-08-24T15:05:40.639Z,59.15
2017-08-24T15:08:08.566Z,58.56
2017-08-24T15:10:36.702Z,58.55
2017-08-24T15:13:04.603Z,59.58
2017-08-24T15:15:32.542Z,60.51
2017-08-24T15:18:00.463Z,60.79
2017-08-24T15:20:28.675Z,61.04
2017-08-24T15:22:56.855Z,61.62
2017-08-24T15:25:24.876Z,62.53
2017-08-24T15:27:52.788Z,62.90
2017-08-24T15:30:20.691Z,63.40
2017-08-24T15:32:48.594Z,64.15
2017-08-24T15:35:16.498Z,63.67
2017-08-24T15:37:44.411Z,63.49
2017-08-24T15:40:12.311Z,63.95
2017-08-24T15:42:40.257Z,63.23
2017-08-24T15:45:08.150Z,63.65
2017-08-24T15:47:36.069Z,64.55
2017-08-24T15:50:03.966Z,64.62
2017-08-24T15:52:31.875Z,64.32
2017-08-24T15:54:59.787Z,64.04
2017-08-24T15:57:27.704Z,64.35
2017-08-24T15:59:55.612Z,64.52
2017-08-24T16:02:23.524Z,64.80
2017-08-24T16:04:51.441Z,64.59
2017-08-24T16:07:19.627Z,65.26
2017-08-24T16:09:47.540Z,65.00
2017-08-24T16:12:15.453Z,65.60
2017-08-24T16:14:43.377Z,65.56
2017-08-24T16:17:11.291Z,65.85
2017-08-24T16:19:39.199Z,66.11
2017-08-24T16:22:07.107Z,66.12
2017-08-24T16:24:35.014Z,65.69
2017-08-24T16:27:02.924Z,66.21
2017-08-24T16:29:30.847Z,66.78
2017-08-24T16:31:58.998Z,66.95
2017-08-24T16:34:26.927Z,67.31
2017-08-24T16:36:54.908Z,67.63
2017-08-24T16:39:22.969Z,67.83
2017-08-24T16:41:50.887Z,67.57
2017-08-24T16:44:18.793Z,67.45
2017-08-24T16:46:46.694Z,67.80
2017-08-24T16:49:14.607Z,67.95
2017-08-24T16:51:42.514Z,68.24
2017-08-24T16:54:10.418Z,68.61
2017-08-24T16:56:38.336Z,69.12
2017-08-24T16:59:06.301Z,69.73
2017-08-24T17:01:34.225Z,69.73
2017-08-24T17:04:02.139Z,69.99
2017-08-24T17:06:30.051Z,69.88
2017-08-24T17:08:57.969Z,70.00
2017-08-24T17:11:26.046Z,70.25
2017-08-24T17:13:53.970Z,69.97
2017-08-24T17:16:21.872Z,70.04
2017-08-24T17:18:49.872Z,69.53
2017-08-24T17:21:17.774Z,69.49
2017-08-24T17:23:45.674Z,68.98
2017-08-24T17:26:13.596Z,69.38
2017-08-24T17:28:41.498Z,68.96
2017-08-24T17:31:09.403Z,69.10
2017-08-24T17:33:37.624Z,69.52
2017-08-24T17:36:05.523Z,69.88
2017-08-24T17:38:33.629Z,70.02
2017-08-24T17:41:01.536Z,70.02
2017-08-24T17:43:29.449Z,70.58
2017-08-24T17:45:57.363Z,70.88
2017-08-24T17:48:25.279Z,71.01
2017-08-24T17:50:53.196Z,70.53
2017-08-24T17:53:21.105Z,70.58
2017-08-24T17:55:49.035Z,71.10
2017-08-24T17:58:16.934Z,70.98
2017-08-24T18:00:44.853Z,71.19
2017-08-24T18:03:12.751Z,71.76
2017-08-24T18:05:41.000Z,71.74
2017-08-24T18:08:08.896Z,72.16
2017-08-24T18:10:36.794Z,72.78
2017-08-24T18:13:04.697Z,73.09
2017-08-24T18:15:32.603Z,73.35
2017-08-24T18:18:00.523Z,72.94
2017-08-24T18:20:28.421Z,73.21
2017-08-24T18:22:56.341Z,74.30
2017-08-24T18:25:24.243Z,74.35
2017-08-24T18:27:52.145Z,74.50
2017-08-24T18:30:20.056Z,75.43
2017-08-24T18:32:47.970Z,75.07
2017-08-24T18:35:15.884Z,75.72
2017-08-24T18:37:43.987Z,76.10
2017-08-24T18:40:11.968Z,75.83
2017-08-24T18:42:39.871Z,75.78
2017-08-24T18:45:07.775Z,75.63
2017-08-24T18:47:35.670Z,76.08
2017-08-24T18:50:03.586Z,76.20
2017-08-24T18:52:31.492Z,76.69
2017-08-24T18:54:59.398Z,77.02
2017-08-24T18:57:27.584Z,77.47
2017-08-24T18:59:55.706Z,77.34
2017-08-24T19:02:23.614Z,77.38
2017-08-24T19:04:51.611Z,77.31
2017-08-24T19:07:19.513Z,77.77
2017-08-24T19:09:47.415Z,77.92
2017-08-24T19:12:15.313Z,78.07
2017-08-24T19:14:43.221Z,78.51
2017-08-24T19:17:11.131Z,78.38
2017-08-24T19:19:39.033Z,78.89
2017-08-24T19:22:06.945Z,78.88
2017-08-24T19:24:34.849Z,78.66
2017-08-24T19:27:03.075Z,78.69
2017-08-24T19:29:30.968Z,79.09
2017-08-24T19:31:58.862Z,79.23
2017-08-24T19:34:26.770Z,79.27
2017-08-24T19:36:54.691Z,78.55
2017-08-24T19:39:22.600Z,78.19
2017-08-24T19:41:50.502Z,78.17
2017-08-24T19:44:18.572Z,78.32
2017-08-24T19:46:46.484Z,77.97
2017-08-24T19:49:14.388Z,77.63
2017-08-24T19:51:42.311Z,77.35
2017-08-24T19:54:10.219Z,77.37
2017-08-24T19:56:38.140Z,78.26
2017-08-24T19:59:06.029Z,78.47
2017-08-24T20:01:33.947Z,78.21
2017-08-24T20:04:01.860Z,78.55
2017-08-24T20:06:29.771Z,78.44
2017-08-24T20:08:57.679Z,78.26
2017-08-24T20:11:25.724Z,78.96
2017-08-24T20:13:53.636Z,79.02
2017-08-24T20:16:21.546Z,78.78
2017-08-24T20:18:49.451Z,79.25
2017-08-24T20:21:17.355Z,79.30
2017-08-24T20:23:45.276Z,79.82
2017-08-24T20:26:13.223Z,79.76
2017-08-24T20:28:41.151Z,80.36
2017-08-24T20:31:09.055Z,80.07
2017-08-24T20:33:36.980Z,80.01
2017-08-24T20:36:04.884Z,80.28
2017-08-24T20:38:32.796Z,80.30
2017-08-24T20:41:00.703Z,80.69
2017-08-24T20:43:28.911Z,80.49
2017-08-24T20:45:56.830Z,81.52
2017-08-24T20:48:24.740Z,81.66
2017-08-24T20:50:52.656Z,82.18
2017-08-24T20:53:20.564Z,82.08
2017-08-24T20:55:48.480Z,82.76
2017-08-24T20:58:16.389Z,82.17
2017-08-24T21:00:44.299Z,83.01
2017-08-24T21:03:12.516Z,82.65
2017-08-24T21:05:40.436Z,83.25
2017-08-24T21:08:08.356Z,83.06
2017-08-24T21:10:36.495Z,82.38
2017-08-24T21:13:04.400Z,82.32
2017-08-24T21:15:32.304Z,82.05
2017-08-24T21:18:00.207Z,82.49
2017-08-24T21:20:28.978Z,82.66
2017-08-24T21:22:56.887Z,82.16
2017-08-24T21:25:24.795Z,81.99
2017-08-24T21:27:52.704Z,82.05
2017-08-24T21:30:20.613Z,82.15
2017-08-24T21:32:48.524Z,81.64
2017-08-24T21:35:16.421Z,81.26
2017-08-24T21:37:44.366Z,81.26
2017-08-24T21:40:12.266Z,81.42
2017-08-24T21:42:40.607Z,81.69
2017-08-24T21:45:08.505Z,82.15
2017-08-24T21:47:36.410Z,81.99
2017-08-24T21:50:04.310Z,82.59
2017-08-24T21:52:32.234Z,83.34
2017-08-24T21:55:00.146Z,83.51
2017-08-24T21:57:28.044Z,83.47
2017-08-24T21:59:56.488Z,83.97
2017-08-24T22:02:24.400Z,84.59
2017-08-24T22:04:52.673Z,84.52
2017-08-24T22:07:20.864Z,85.19
2017-08-24T22:09:48.768Z,85.53
2017-08-24T22:12:16.717Z,85.50
2017-08-24T22:14:44.619Z,86.03
2017-08-24T22:17:12.536Z,85.93
2017-08-24T22:19:40.435Z,86.61
2017-08-24T22:22:08.348Z,86.31
2017-08-24T22:24:36.249Z,86.15
2017-08-24T22:27:04.141Z,86.39
2017-08-24T22:29:32.056Z,85.95
2017-08-24T22:31:59.950Z,85.53
2017-08-24T22:34:27.858Z,85.42
2017-08-24T22:36:55.764Z,85.33
2017-08-24T22:39:23.680Z,85.25
2017-08-24T22:41:51.579Z,85.00
2017-08-24T22:44:19.483Z,84.89
2017-08-24T22:46:47.378Z,84.96
2017-08-24T22:49:15.301Z,85.07
2017-08-24T22:51:43.214Z,84.92
2017-08-24T22:54:16.690Z,84.50
2017-08-24T22:56:49.979Z,84.96
2017-08-24T22:59:23.643Z,85.50
2017-08-24T23:01:57.180Z,85.74
2017-08-24T23:04:25.227Z,85.79
2017-08-24T23:06:53.128Z,86.41
2017-08-24T23:09:21.031Z,87.19
2017-08-24T23:11:48.933Z,87.52
2017-08-24T23:14:16.844Z,87.88
2017-08-24T23:16:44.742Z,87.74
2017-08-24T23:19:12.652Z,88.10
2017-08-24T23:21:40.568Z,88.48
2017-08-24T23:24:08.472Z,88.22
2017-08-24T23:26:36.383Z,87.79
2017-08-24T23:29:04.282Z,87.73
2017-08-24T23:31:32.186Z,87.89
2017-08-24T23:34:00.103Z,88.18
2017-08-24T23:36:28.005Z,88.32
2017-08-24T23:38:55.927Z,88.33
2017-08-24T23:41:23.828Z,87.96
2017-08-24T23:43:51.744Z,87.70
2017-08-24T23:46:19.648Z,87.79
2017-08-24T23:48:47.563Z,87.95
2017-08-24T23:51:15.468Z,87.98
2017-08-24T23:53:43.388Z,88.31
2017-08-24T23:56:11.293Z,88.58
2017-08-24T23:58:39.207Z,88.19
